Time;durP1;ratioP1;P1;durP2;ratioP2;P2;SDS_P1;SDS_P2;PMS_P1;PMS_P2;Temp;Humidity;BMP_temperature;BMP_pressure;BME280_temperature;BME280_humidity;BME280_pressure;Samples;Min_cycle;Max_cycle;Signal;HPM_P1;HPM_P2
2022/09/13 18:51:10;;;;;;;18.75;15.30;;;;;;;16.70;78.80;99715.41;1786369;77;22039;-77
2022/09/13 18:53:36;;;;;;;20.52;12.45;;;;;;;16.59;78.95;99711.30;1754104;79;21021;-78
2022/09/13 18:56:05;;;;;;;18.48;13.18;;;;;;;16.57;79.06;99712.06;1754160;79;21118;-78
2022/09/13 18:58:33;;;;;;;22.07;14.35;;;;;;;16.53;79.12;99712.17;1764833;79;21101;-77
2022/09/13 19:01:14;;;;;;;17.75;13.25;;;;;;;16.49;79.17;99709.11;1757679;79;21021;-77
2022/09/13 19:03:53;;;;;;;18.35;14.35;;;;;;;16.44;79.22;99705.73;1763106;79;21055;-77
2022/09/13 19:06:26;;;;;;;24.35;15.85;;;;;;;16.37;79.24;99713.59;1749189;79;21060;-77
2022/09/13 19:08:53;;;;;;;28.60;21.60;;;;;;;16.29;79.33;99716.05;1756963;79;21712;-77
2022/09/13 19:11:21;;;;;;;28.90;19.12;;;;;;;16.24;79.40;99716.42;1741059;79;21086;-77
2022/09/13 19:13:47;;;;;;;26.52;19.75;;;;;;;16.17;79.44;99720.53;1758156;79;21072;-77
2022/09/13 19:16:16;;;;;;;28.50;19.75;;;;;;;16.13;79.50;99713.13;1765626;79;21128;-77
2022/09/13 19:18:43;;;;;;;21.93;16.00;;;;;;;16.08;79.54;99715.67;1762315;79;21055;-77
2022/09/13 19:21:12;;;;;;;27.22;15.95;;;;;;;16.01;79.62;99711.68;1759419;79;21068;-78
2022/09/13 19:23:41;;;;;;;20.17;15.03;;;;;;;15.96;79.72;99715.57;1755990;79;21759;-77
2022/09/13 19:26:10;;;;;;;19.45;14.68;;;;;;;15.90;79.78;99707.05;1756044;79;21073;-78
2022/09/13 19:28:38;;;;;;;19.57;15.03;;;;;;;15.89;79.84;99714.81;1754310;79;21046;-78
2022/09/13 19:31:09;;;;;;;22.17;14.98;;;;;;;15.85;79.89;99700.98;1751995;79;21053;-78
2022/09/13 19:33:36;;;;;;;16.70;13.28;;;;;;;15.81;79.98;99704.33;1762277;79;21131;-79
2022/09/13 19:36:09;;;;;;;20.30;13.85;;;;;;;15.82;80.05;99703.29;1759199;79;21038;-77
2022/09/13 19:38:35;;;;;;;21.40;12.95;;;;;;;15.77;80.10;99708.49;1757971;79;21108;-77
2022/09/13 19:41:04;;;;;;;27.50;16.17;;;;;;;15.77;80.20;99709.84;1752875;79;21042;-77
2022/09/13 19:43:33;;;;;;;28.98;17.42;;;;;;;15.73;80.25;99700.56;1764589;79;21463;-78
2022/09/13 19:46:09;;;;;;;25.43;16.10;;;;;;;15.72;80.31;99704.31;1760006;79;21405;-78
2022/09/13 19:48:40;;;;;;;17.80;12.63;;;;;;;15.69;80.38;99704.77;1754268;79;21739;-78
2022/09/13 19:51:09;;;;;;;24.57;15.20;;;;;;;15.69;80.48;99708.80;1760214;79;21073;-78
2022/09/13 19:53:36;;;;;;;23.27;15.10;;;;;;;15.66;80.56;99697.11;1759842;79;21049;-78
2022/09/13 19:56:06;;;;;;;36.55;16.97;;;;;;;15.67;80.62;99698.77;1765910;79;21002;-78
2022/09/13 19:58:32;;;;;;;26.27;16.27;;;;;;;15.65;80.67;99696.83;1720951;81;21634;-79
2022/09/13 20:01:06;;;;;;;26.07;14.55;;;;;;;15.63;80.80;99698.38;1695768;81;21112;-79
2022/09/13 20:03:32;;;;;;;23.45;14.35;;;;;;;15.64;80.88;99700.55;1721351;81;22283;-79
2022/09/13 20:06:06;;;;;;;22.45;13.80;;;;;;;15.64;80.94;99702.72;1723737;81;21427;-79
2022/09/13 20:08:35;;;;;;;17.87;12.03;;;;;;;15.61;81.00;99699.65;1708000;83;21147;-78
2022/09/13 20:11:10;;;;;;;15.38;11.85;;;;;;;15.63;81.11;99690.83;1698316;83;21246;-78
2022/09/13 20:13:37;;;;;;;13.55;11.18;;;;;;;15.69;81.20;99696.69;1719860;81;21084;-78
2022/09/13 20:16:13;;;;;;;15.18;11.63;;;;;;;15.74;81.27;99692.80;1686738;83;21134;-79
2022/09/13 20:18:40;;;;;;;14.25;11.05;;;;;;;15.80;81.34;99695.95;1688863;83;21109;-78
2022/09/13 20:21:07;;;;;;;16.15;11.53;;;;;;;15.84;81.44;99697.16;1725482;81;21037;-78
2022/09/13 20:23:38;;;;;;;23.00;13.95;;;;;;;15.86;81.52;99695.09;1702903;83;21784;-78
2022/09/13 20:26:16;;;;;;;16.62;11.25;;;;;;;15.87;81.60;99692.16;1710063;82;21096;-79
2022/09/13 20:28:42;;;;;;;15.58;11.57;;;;;;;15.89;81.68;99698.16;1715194;81;21117;-79
2022/09/13 20:31:08;;;;;;;13.98;10.53;;;;;;;15.89;81.76;99695.98;1710856;82;21850;-79
2022/09/13 20:33:35;;;;;;;13.93;11.55;;;;;;;15.92;81.85;99694.19;1700148;82;21560;-78
2022/09/13 20:36:08;;;;;;;19.40;12.23;;;;;;;15.95;81.92;99691.06;1729141;81;21125;-78
2022/09/13 20:38:34;;;;;;;16.73;11.25;;;;;;;15.95;81.96;99689.20;1724551;81;21116;-76
2022/09/13 20:41:05;;;;;;;15.05;10.48;;;;;;;15.96;82.03;99690.84;1679823;83;21393;-79
2022/09/13 20:43:32;;;;;;;14.63;10.68;;;;;;;15.95;82.10;99680.30;1676597;83;21102;-77
2022/09/13 20:45:59;;;;;;;12.78;10.20;;;;;;;15.95;82.15;99686.50;1688289;83;21138;-79
2022/09/13 20:48:25;;;;;;;13.40;10.50;;;;;;;15.95;82.23;99688.37;1713791;82;21897;-78
2022/09/13 20:50:57;;;;;;;16.02;10.55;;;;;;;15.95;82.29;99688.37;1734717;81;21734;-78
2022/09/13 20:53:23;;;;;;;14.45;10.40;;;;;;;15.96;82.32;99691.37;1722728;81;21554;-78
2022/09/13 20:55:51;;;;;;;12.70;10.25;;;;;;;15.93;82.37;99693.98;1718802;82;21724;-78
2022/09/13 20:58:19;;;;;;;16.25;11.12;;;;;;;15.96;82.44;99692.20;1721087;83;21088;-78
2022/09/13 21:00:47;;;;;;;12.58;10.18;;;;;;;15.95;82.48;99691.06;1720303;83;21121;-78
2022/09/13 21:03:14;;;;;;;13.05;9.75;;;;;;;15.97;82.51;99690.33;1726630;81;21041;-78
2022/09/13 21:05:41;;;;;;;11.97;8.93;;;;;;;15.97;82.56;99693.02;1710866;83;21024;-78
2022/09/13 21:11:02;;;;;;;11.30;9.23;;;;;;;15.95;82.62;99680.30;1729708;81;21086;-78
2022/09/13 21:13:39;;;;;;;10.40;9.08;;;;;;;15.93;82.63;99683.75;1723071;82;21155;-77
2022/09/13 21:16:11;;;;;;;12.10;9.00;;;;;;;15.89;82.68;99682.02;1708463;82;21700;-78
2022/09/13 21:18:37;;;;;;;10.38;8.98;;;;;;;15.88;82.71;99680.89;1726494;82;21030;-78
2022/09/13 21:21:04;;;;;;;13.95;9.65;;;;;;;15.87;82.73;99679.23;1710633;83;21103;-78
2022/09/13 21:23:31;;;;;;;10.72;8.33;;;;;;;15.84;82.75;99684.54;1697761;83;21064;-78
2022/09/13 21:26:10;;;;;;;11.20;8.83;;;;;;;15.83;82.79;99683.44;1704298;81;21898;-78
2022/09/13 21:28:37;;;;;;;10.00;8.65;;;;;;;15.78;82.80;99687.30;1670134;84;21515;-78
2022/09/13 21:31:07;;;;;;;12.85;8.65;;;;;;;15.77;82.86;99685.64;1712679;82;21041;-78
2022/09/13 21:33:33;;;;;;;10.03;9.03;;;;;;;15.74;82.90;99686.09;1684224;82;21113;-78
2022/09/13 21:36:01;;;;;;;12.28;8.93;;;;;;;15.71;82.89;99683.84;1731963;81;21727;-78
2022/09/13 21:38:29;;;;;;;10.08;8.88;;;;;;;15.66;82.93;99687.19;1693764;83;21596;-78
2022/09/13 21:41:04;;;;;;;11.93;9.80;;;;;;;15.60;82.96;99682.70;1688019;83;21054;-78
2022/09/13 21:43:31;;;;;;;10.90;9.35;;;;;;;15.56;82.98;99684.69;1713182;82;21018;-78
2022/09/13 21:46:02;;;;;;;11.35;9.55;;;;;;;15.52;83.01;99686.20;1711630;82;20994;-78
2022/09/13 21:48:31;;;;;;;12.18;9.88;;;;;;;15.49;83.08;99689.60;1718568;82;21049;-78
2022/09/13 21:51:06;;;;;;;11.95;9.83;;;;;;;15.45;83.10;99682.98;1711615;82;21070;-78
2022/09/13 21:53:37;;;;;;;10.98;9.58;;;;;;;15.43;83.13;99685.08;1729376;82;21037;-76
2022/09/13 21:56:09;;;;;;;11.63;9.63;;;;;;;15.40;83.18;99688.21;1705883;83;21069;-77
2022/09/13 21:58:35;;;;;;;12.37;10.23;;;;;;;15.39;83.25;99693.78;1710735;83;21102;-76
2022/09/13 22:01:09;;;;;;;13.30;9.10;;;;;;;15.38;83.30;99690.27;1733079;81;21404;-76
2022/09/13 22:03:37;;;;;;;12.75;8.93;;;;;;;15.40;83.34;99690.89;1715076;81;21245;-76
2022/09/13 22:06:03;;;;;;;13.13;9.08;;;;;;;15.42;83.40;99695.52;1690674;83;21587;-76
2022/09/13 22:08:33;;;;;;;11.70;9.23;;;;;;;15.42;83.46;99691.48;1720116;83;21058;-76
2022/09/13 22:11:08;;;;;;;12.10;9.75;;;;;;;15.44;83.50;99689.94;1717097;83;28809;-76
2022/09/13 22:13:35;;;;;;;11.57;9.98;;;;;;;15.43;83.57;99682.39;1698771;83;21141;-76
2022/09/13 22:16:06;;;;;;;13.28;9.45;;;;;;;15.46;83.63;99683.81;1697990;83;21142;-76
2022/09/13 22:18:32;;;;;;;10.23;9.08;;;;;;;15.46;83.68;99680.61;1699566;84;21045;-76
2022/09/13 22:21:05;;;;;;;13.90;10.70;;;;;;;15.48;83.74;99678.55;1699415;83;21022;-76
2022/09/13 22:23:31;;;;;;;13.80;10.15;;;;;;;15.52;83.79;99679.47;1700420;82;21696;-76
2022/09/13 22:25:57;;;;;;;14.93;9.83;;;;;;;15.52;83.83;99678.13;1758895;80;21073;-76
2022/09/13 22:28:23;;;;;;;11.75;10.40;;;;;;;15.49;83.89;99668.11;1763181;79;21288;-76
2022/09/13 22:30:49;;;;;;;15.68;10.18;;;;;;;15.46;83.95;99664.48;1760640;79;21491;-75
2022/09/13 22:33:15;;;;;;;15.55;10.18;;;;;;;15.44;84.00;99669.78;1756796;79;21022;-76
2022/09/13 22:35:41;;;;;;;11.60;10.18;;;;;;;15.40;84.04;99661.86;1763962;80;21017;-76
2022/09/13 22:38:08;;;;;;;12.35;9.45;;;;;;;15.37;84.12;99664.47;1755531;79;21668;-76
2022/09/13 22:40:35;;;;;;;12.33;9.73;;;;;;;15.34;84.17;99670.25;1758730;80;21093;-78
2022/09/13 22:43:01;;;;;;;11.78;9.00;;;;;;;15.32;84.21;99669.66;1771309;79;21097;-78
2022/09/13 22:45:27;;;;;;;14.35;9.98;;;;;;;15.30;84.27;99671.75;1765563;80;21016;-78
2022/09/13 22:47:53;;;;;;;14.13;10.50;;;;;;;15.25;84.30;99674.26;1762236;80;21789;-78
2022/09/13 22:50:19;;;;;;;12.68;9.60;;;;;;;15.21;84.35;99662.30;1768141;80;21689;-78
2022/09/13 22:52:45;;;;;;;15.28;10.20;;;;;;;15.17;84.40;99671.00;1754591;80;21274;-78
2022/09/13 22:55:11;;;;;;;12.93;10.50;;;;;;;15.13;84.46;99673.30;1761479;79;21034;-78
2022/09/13 22:57:37;;;;;;;11.28;10.08;;;;;;;15.10;84.50;99683.66;1766154;80;21090;-78
2022/09/13 23:00:04;;;;;;;11.63;10.23;;;;;;;15.07;84.55;99684.91;1769694;80;21101;-78
2022/09/13 23:02:30;;;;;;;13.18;10.70;;;;;;;15.06;84.60;99684.60;1767836;80;21007;-78
2022/09/13 23:04:57;;;;;;;18.52;11.18;;;;;;;15.03;84.66;99685.04;1764613;79;21046;-77
2022/09/13 23:07:23;;;;;;;11.90;10.58;;;;;;;15.02;84.72;99676.70;1762758;80;21508;-78
2022/09/13 23:09:49;;;;;;;12.20;10.53;;;;;;;14.99;84.74;99679.80;1767441;80;21023;-78
2022/09/13 23:12:15;;;;;;;12.63;11.00;;;;;;;14.97;84.81;99681.88;1754009;80;20983;-78
2022/09/13 23:14:41;;;;;;;10.95;9.80;;;;;;;14.95;84.88;99678.06;1762059;81;21527;-78
2022/09/13 23:17:07;;;;;;;12.70;11.00;;;;;;;14.90;84.95;99678.41;1762200;80;21134;-78
2022/09/13 23:19:33;;;;;;;15.70;10.25;;;;;;;14.86;85.03;99678.53;1763530;80;21010;-78
2022/09/13 23:21:59;;;;;;;14.07;9.78;;;;;;;14.83;85.08;99679.80;1766823;80;21065;-79
2022/09/13 23:24:25;;;;;;;13.13;11.03;;;;;;;14.81;85.14;99674.34;1754704;80;20975;-78
2022/09/13 23:26:53;;;;;;;13.65;11.35;;;;;;;14.80;85.21;99678.06;1773626;80;21050;-79
2022/09/13 23:29:19;;;;;;;13.65;10.75;;;;;;;14.78;85.27;99677.44;1751896;80;21859;-79
2022/09/13 23:31:45;;;;;;;13.20;11.60;;;;;;;14.76;85.33;99675.50;1765613;80;21059;-78
2022/09/13 23:34:13;;;;;;;14.18;11.45;;;;;;;14.72;85.40;99673.76;1770325;80;21113;-78
2022/09/13 23:36:41;;;;;;;13.13;10.18;;;;;;;14.70;85.44;99670.99;1771436;80;20998;-79
2022/09/13 23:39:12;;;;;;;14.98;11.33;;;;;;;14.66;85.49;99671.11;1775260;80;21051;-78
2022/09/13 23:41:38;;;;;;;15.10;10.50;;;;;;;14.65;85.53;99672.14;1775451;80;21801;-79
2022/09/13 23:44:04;;;;;;;12.20;10.55;;;;;;;14.64;85.59;99669.14;1775934;80;20879;-78
2022/09/13 23:46:30;;;;;;;14.15;11.08;;;;;;;14.60;85.65;99670.09;1751592;80;21003;-79
2022/09/13 23:48:57;;;;;;;14.93;10.53;;;;;;;14.58;85.69;99670.00;1761448;80;21454;-79
2022/09/13 23:51:25;;;;;;;17.75;11.12;;;;;;;14.55;85.75;99669.09;1770095;80;21097;-79
2022/09/13 23:53:55;;;;;;;14.78;10.28;;;;;;;14.54;85.82;99671.47;1771087;81;21101;-79
2022/09/13 23:56:20;;;;;;;16.52;11.35;;;;;;;14.52;85.85;99678.41;1768023;80;21046;-78
2022/09/13 23:58:46;;;;;;;12.55;10.45;;;;;;;14.48;85.91;99680.69;1760499;81;21055;-79
